sensor_id;sensor_type;location;lat;lon;timestamp;temperature;humidity
17370;DHT22;8802;52.402;4.920;2023-07-31T00:02:04;20.30;99.90
17370;DHT22;8802;52.402;4.920;2023-07-31T00:04:32;20.30;99.90
17370;DHT22;8802;52.402;4.920;2023-07-31T00:06:59;20.40;99.90
17370;DHT22;8802;52.402;4.920;2023-07-31T00:09:26;20.40;99.90
17370;DHT22;8802;52.402;4.920;2023-07-31T00:11:54;20.40;99.90
17370;DHT22;8802;52.402;4.920;2023-07-31T00:14:21;20.40;99.90
17370;DHT22;8802;52.402;4.920;2023-07-31T00:16:49;20.40;99.90
17370;DHT22;8802;52.402;4.920;2023-07-31T00:19:16;20.40;99.90
17370;DHT22;8802;52.402;4.920;2023-07-31T00:21:45;20.40;99.90
17370;DHT22;8802;52.402;4.920;2023-07-31T00:24:12;20.40;99.90
17370;DHT22;8802;52.402;4.920;2023-07-31T00:26:39;20.40;99.90
17370;DHT22;8802;52.402;4.920;2023-07-31T00:29:07;20.40;99.90
17370;DHT22;8802;52.402;4.920;2023-07-31T00:31:38;20.40;99.90
17370;DHT22;8802;52.402;4.920;2023-07-31T00:34:05;20.40;99.90
17370;DHT22;8802;52.402;4.920;2023-07-31T00:36:32;20.40;99.90
17370;DHT22;8802;52.402;4.920;2023-07-31T00:38:59;20.40;99.90
17370;DHT22;8802;52.402;4.920;2023-07-31T00:41:27;20.40;99.90
17370;DHT22;8802;52.402;4.920;2023-07-31T00:43:54;20.40;99.90
17370;DHT22;8802;52.402;4.920;2023-07-31T00:46:23;20.40;99.90
17370;DHT22;8802;52.402;4.920;2023-07-31T00:48:50;20.40;99.90
17370;DHT22;8802;52.402;4.920;2023-07-31T00:51:19;20.40;99.90
17370;DHT22;8802;52.402;4.920;2023-07-31T00:53:47;20.40;99.90
17370;DHT22;8802;52.402;4.920;2023-07-31T00:56:14;20.40;99.90
17370;DHT22;8802;52.402;4.920;2023-07-31T00:58:42;20.40;99.90
17370;DHT22;8802;52.402;4.920;2023-07-31T01:01:09;20.40;99.90
17370;DHT22;8802;52.402;4.920;2023-07-31T01:03:38;20.40;99.90
17370;DHT22;8802;52.402;4.920;2023-07-31T01:06:13;20.40;99.90
17370;DHT22;8802;52.402;4.920;2023-07-31T01:08:47;20.40;99.90
17370;DHT22;8802;52.402;4.920;2023-07-31T01:11:22;20.40;99.90
17370;DHT22;8802;52.402;4.920;2023-07-31T01:13:51;20.40;99.90
17370;DHT22;8802;52.402;4.920;2023-07-31T01:16:19;20.40;99.90
17370;DHT22;8802;52.402;4.920;2023-07-31T01:18:50;20.40;99.90
17370;DHT22;8802;52.402;4.920;2023-07-31T01:21:28;20.40;99.90
17370;DHT22;8802;52.402;4.920;2023-07-31T01:24:20;20.40;99.90
17370;DHT22;8802;52.402;4.920;2023-07-31T01:26:53;20.40;99.90
17370;DHT22;8802;52.402;4.920;2023-07-31T01:29:26;20.40;99.90
17370;DHT22;8802;52.402;4.920;2023-07-31T01:32:06;20.40;99.90
17370;DHT22;8802;52.402;4.920;2023-07-31T01:34:37;20.40;99.90
17370;DHT22;8802;52.402;4.920;2023-07-31T01:37:05;20.40;99.90
17370;DHT22;8802;52.402;4.920;2023-07-31T01:39:32;20.40;99.90
17370;DHT22;8802;52.402;4.920;2023-07-31T01:42:01;20.40;99.90
17370;DHT22;8802;52.402;4.920;2023-07-31T01:44:28;20.40;99.90
17370;DHT22;8802;52.402;4.920;2023-07-31T01:46:55;20.40;99.90
17370;DHT22;8802;52.402;4.920;2023-07-31T01:49:24;20.40;99.90
17370;DHT22;8802;52.402;4.920;2023-07-31T01:51:51;20.40;99.90
17370;DHT22;8802;52.402;4.920;2023-07-31T01:54:18;20.40;99.90
17370;DHT22;8802;52.402;4.920;2023-07-31T01:56:45;20.40;99.90
17370;DHT22;8802;52.402;4.920;2023-07-31T01:59:14;20.40;99.90
17370;DHT22;8802;52.402;4.920;2023-07-31T02:01:41;20.40;99.90
17370;DHT22;8802;52.402;4.920;2023-07-31T02:04:08;20.40;99.90
17370;DHT22;8802;52.402;4.920;2023-07-31T02:06:35;20.40;99.90
17370;DHT22;8802;52.402;4.920;2023-07-31T02:09:02;20.40;99.90
17370;DHT22;8802;52.402;4.920;2023-07-31T02:11:33;20.40;99.90
17370;DHT22;8802;52.402;4.920;2023-07-31T02:14:00;20.40;99.90
17370;DHT22;8802;52.402;4.920;2023-07-31T02:16:28;20.40;99.90
17370;DHT22;8802;52.402;4.920;2023-07-31T02:18:55;20.40;99.90
17370;DHT22;8802;52.402;4.920;2023-07-31T02:21:22;20.40;99.90
17370;DHT22;8802;52.402;4.920;2023-07-31T02:23:48;20.40;99.90
17370;DHT22;8802;52.402;4.920;2023-07-31T02:26:15;20.40;99.90
17370;DHT22;8802;52.402;4.920;2023-07-31T02:28:42;20.40;99.90
17370;DHT22;8802;52.402;4.920;2023-07-31T02:31:09;20.40;99.90
17370;DHT22;8802;52.402;4.920;2023-07-31T02:33:38;20.40;99.90
17370;DHT22;8802;52.402;4.920;2023-07-31T02:36:05;20.40;99.90
17370;DHT22;8802;52.402;4.920;2023-07-31T02:38:31;20.40;99.90
17370;DHT22;8802;52.402;4.920;2023-07-31T02:40:59;20.40;99.90
17370;DHT22;8802;52.402;4.920;2023-07-31T02:43:26;20.40;99.90
17370;DHT22;8802;52.402;4.920;2023-07-31T02:45:53;20.40;99.90
17370;DHT22;8802;52.402;4.920;2023-07-31T02:48:19;20.40;99.90
17370;DHT22;8802;52.402;4.920;2023-07-31T02:50:48;20.40;99.90
17370;DHT22;8802;52.402;4.920;2023-07-31T02:53:15;20.40;99.90
17370;DHT22;8802;52.402;4.920;2023-07-31T02:55:42;20.30;99.90
17370;DHT22;8802;52.402;4.920;2023-07-31T02:58:09;20.40;99.90
17370;DHT22;8802;52.402;4.920;2023-07-31T03:00:42;20.40;99.90
17370;DHT22;8802;52.402;4.920;2023-07-31T03:03:09;20.40;99.90
17370;DHT22;8802;52.402;4.920;2023-07-31T03:05:36;20.40;99.90
17370;DHT22;8802;52.402;4.920;2023-07-31T03:08:04;20.40;99.90
17370;DHT22;8802;52.402;4.920;2023-07-31T03:10:31;20.40;99.90
17370;DHT22;8802;52.402;4.920;2023-07-31T03:12:58;20.30;99.90
17370;DHT22;8802;52.402;4.920;2023-07-31T03:15:25;20.40;99.90
17370;DHT22;8802;52.402;4.920;2023-07-31T03:17:52;20.30;99.90
17370;DHT22;8802;52.402;4.920;2023-07-31T03:20:19;20.30;99.90
17370;DHT22;8802;52.402;4.920;2023-07-31T03:22:46;20.30;99.90
17370;DHT22;8802;52.402;4.920;2023-07-31T03:25:15;20.30;99.90
17370;DHT22;8802;52.402;4.920;2023-07-31T03:27:42;20.30;99.90
17370;DHT22;8802;52.402;4.920;2023-07-31T03:30:10;20.30;99.90
17370;DHT22;8802;52.402;4.920;2023-07-31T03:32:37;20.30;99.90
17370;DHT22;8802;52.402;4.920;2023-07-31T03:35:05;20.30;99.90
17370;DHT22;8802;52.402;4.920;2023-07-31T03:37:32;20.30;99.90
17370;DHT22;8802;52.402;4.920;2023-07-31T03:39:59;20.30;99.90
17370;DHT22;8802;52.402;4.920;2023-07-31T03:42:27;20.30;99.90
17370;DHT22;8802;52.402;4.920;2023-07-31T03:44:54;20.30;99.90
17370;DHT22;8802;52.402;4.920;2023-07-31T03:47:21;20.30;99.90
17370;DHT22;8802;52.402;4.920;2023-07-31T03:49:48;20.30;99.90
17370;DHT22;8802;52.402;4.920;2023-07-31T03:52:16;20.30;99.90
17370;DHT22;8802;52.402;4.920;2023-07-31T03:54:42;20.30;99.90
17370;DHT22;8802;52.402;4.920;2023-07-31T03:57:10;20.20;99.90
17370;DHT22;8802;52.402;4.920;2023-07-31T03:59:38;20.20;99.90
17370;DHT22;8802;52.402;4.920;2023-07-31T04:02:05;20.20;99.90
17370;DHT22;8802;52.402;4.920;2023-07-31T04:04:32;20.20;99.90
17370;DHT22;8802;52.402;4.920;2023-07-31T04:07:00;20.20;99.90
17370;DHT22;8802;52.402;4.920;2023-07-31T04:09:27;20.20;99.90
17370;DHT22;8802;52.402;4.920;2023-07-31T04:11:54;20.20;99.90
17370;DHT22;8802;52.402;4.920;2023-07-31T04:14:21;20.20;99.90
17370;DHT22;8802;52.402;4.920;2023-07-31T04:16:50;20.30;99.90
17370;DHT22;8802;52.402;4.920;2023-07-31T04:19:18;20.20;99.90
17370;DHT22;8802;52.402;4.920;2023-07-31T04:21:45;20.20;99.90
17370;DHT22;8802;52.402;4.920;2023-07-31T04:24:12;20.20;99.90
17370;DHT22;8802;52.402;4.920;2023-07-31T04:26:39;20.20;99.90
17370;DHT22;8802;52.402;4.920;2023-07-31T04:29:06;20.20;99.90
17370;DHT22;8802;52.402;4.920;2023-07-31T04:31:34;20.20;99.90
17370;DHT22;8802;52.402;4.920;2023-07-31T04:34:03;20.20;99.90
17370;DHT22;8802;52.402;4.920;2023-07-31T04:36:30;20.20;99.90
17370;DHT22;8802;52.402;4.920;2023-07-31T04:38:57;20.20;99.90
17370;DHT22;8802;52.402;4.920;2023-07-31T04:41:24;20.20;99.90
17370;DHT22;8802;52.402;4.920;2023-07-31T04:43:51;20.20;99.90
17370;DHT22;8802;52.402;4.920;2023-07-31T04:46:19;20.20;99.90
17370;DHT22;8802;52.402;4.920;2023-07-31T04:48:48;20.20;99.90
17370;DHT22;8802;52.402;4.920;2023-07-31T04:51:16;20.20;99.90
17370;DHT22;8802;52.402;4.920;2023-07-31T04:53:43;20.20;99.90
17370;DHT22;8802;52.402;4.920;2023-07-31T04:56:10;20.20;99.90
17370;DHT22;8802;52.402;4.920;2023-07-31T04:58:37;20.20;99.90
17370;DHT22;8802;52.402;4.920;2023-07-31T05:01:04;20.20;99.90
17370;DHT22;8802;52.402;4.920;2023-07-31T05:03:31;20.20;99.90
17370;DHT22;8802;52.402;4.920;2023-07-31T05:05:58;20.20;99.90
17370;DHT22;8802;52.402;4.920;2023-07-31T05:08:27;20.20;99.90
17370;DHT22;8802;52.402;4.920;2023-07-31T05:10:54;20.20;99.90
17370;DHT22;8802;52.402;4.920;2023-07-31T05:13:22;20.20;99.90
17370;DHT22;8802;52.402;4.920;2023-07-31T05:15:49;20.20;99.90
17370;DHT22;8802;52.402;4.920;2023-07-31T05:18:17;20.20;99.90
17370;DHT22;8802;52.402;4.920;2023-07-31T05:20:44;20.20;99.90
17370;DHT22;8802;52.402;4.920;2023-07-31T05:23:10;20.20;99.90
17370;DHT22;8802;52.402;4.920;2023-07-31T05:25:39;20.20;99.90
17370;DHT22;8802;52.402;4.920;2023-07-31T05:28:06;20.20;99.90
17370;DHT22;8802;52.402;4.920;2023-07-31T05:30:34;20.20;99.90
17370;DHT22;8802;52.402;4.920;2023-07-31T05:33:01;20.20;99.90
17370;DHT22;8802;52.402;4.920;2023-07-31T05:35:28;20.20;99.90
17370;DHT22;8802;52.402;4.920;2023-07-31T05:37:55;20.20;99.90
17370;DHT22;8802;52.402;4.920;2023-07-31T05:40:23;20.20;99.90
17370;DHT22;8802;52.402;4.920;2023-07-31T05:42:51;20.20;99.90
17370;DHT22;8802;52.402;4.920;2023-07-31T05:45:19;20.20;99.90
17370;DHT22;8802;52.402;4.920;2023-07-31T05:47:47;20.20;99.90
17370;DHT22;8802;52.402;4.920;2023-07-31T05:50:14;20.20;99.90
17370;DHT22;8802;52.402;4.920;2023-07-31T05:52:41;20.20;99.90
17370;DHT22;8802;52.402;4.920;2023-07-31T05:55:09;20.20;99.90
17370;DHT22;8802;52.402;4.920;2023-07-31T05:57:36;20.20;99.90
17370;DHT22;8802;52.402;4.920;2023-07-31T06:00:06;20.20;99.90
17370;DHT22;8802;52.402;4.920;2023-07-31T06:02:33;20.20;99.90
17370;DHT22;8802;52.402;4.920;2023-07-31T06:05:03;20.20;99.90
17370;DHT22;8802;52.402;4.920;2023-07-31T06:07:31;20.20;99.90
17370;DHT22;8802;52.402;4.920;2023-07-31T06:09:58;20.20;99.90
17370;DHT22;8802;52.402;4.920;2023-07-31T06:12:30;20.20;99.90
17370;DHT22;8802;52.402;4.920;2023-07-31T06:14:57;20.10;99.90
17370;DHT22;8802;52.402;4.920;2023-07-31T06:17:26;20.10;99.90
17370;DHT22;8802;52.402;4.920;2023-07-31T06:19:53;20.10;99.90
17370;DHT22;8802;52.402;4.920;2023-07-31T06:22:20;20.10;99.90
17370;DHT22;8802;52.402;4.920;2023-07-31T06:24:47;20.00;99.90
17370;DHT22;8802;52.402;4.920;2023-07-31T06:27:14;20.10;99.90
17370;DHT22;8802;52.402;4.920;2023-07-31T06:29:42;20.00;99.90
17370;DHT22;8802;52.402;4.920;2023-07-31T06:32:09;20.00;99.90
17370;DHT22;8802;52.402;4.920;2023-07-31T06:34:37;20.00;99.90
17370;DHT22;8802;52.402;4.920;2023-07-31T06:37:05;20.00;99.90
17370;DHT22;8802;52.402;4.920;2023-07-31T06:39:32;20.00;99.90
17370;DHT22;8802;52.402;4.920;2023-07-31T06:41:59;20.00;99.90
17370;DHT22;8802;52.402;4.920;2023-07-31T06:44:27;20.00;99.90
17370;DHT22;8802;52.402;4.920;2023-07-31T06:46:54;20.00;99.90
17370;DHT22;8802;52.402;4.920;2023-07-31T06:49:21;20.00;99.90
17370;DHT22;8802;52.402;4.920;2023-07-31T06:51:49;20.00;99.90
17370;DHT22;8802;52.402;4.920;2023-07-31T06:54:16;20.10;99.90
17370;DHT22;8802;52.402;4.920;2023-07-31T06:56:43;20.10;99.90
17370;DHT22;8802;52.402;4.920;2023-07-31T06:59:10;20.10;99.90
17370;DHT22;8802;52.402;4.920;2023-07-31T07:01:38;20.10;99.90
17370;DHT22;8802;52.402;4.920;2023-07-31T07:04:04;20.10;99.90
17370;DHT22;8802;52.402;4.920;2023-07-31T07:06:31;20.10;99.90
17370;DHT22;8802;52.402;4.920;2023-07-31T07:09:00;20.10;99.90
17370;DHT22;8802;52.402;4.920;2023-07-31T07:11:27;20.10;99.90
17370;DHT22;8802;52.402;4.920;2023-07-31T07:13:54;20.20;99.90
17370;DHT22;8802;52.402;4.920;2023-07-31T07:16:21;20.20;99.90
17370;DHT22;8802;52.402;4.920;2023-07-31T07:18:48;20.20;99.90
17370;DHT22;8802;52.402;4.920;2023-07-31T07:21:15;20.20;99.90
17370;DHT22;8802;52.402;4.920;2023-07-31T07:23:43;20.20;99.90
17370;DHT22;8802;52.402;4.920;2023-07-31T07:26:11;20.20;99.90
17370;DHT22;8802;52.402;4.920;2023-07-31T07:28:38;20.30;99.90
17370;DHT22;8802;52.402;4.920;2023-07-31T07:31:05;20.30;99.90
17370;DHT22;8802;52.402;4.920;2023-07-31T07:33:32;20.30;99.90
17370;DHT22;8802;52.402;4.920;2023-07-31T07:36:00;20.30;99.90
17370;DHT22;8802;52.402;4.920;2023-07-31T07:38:27;20.40;99.90
17370;DHT22;8802;52.402;4.920;2023-07-31T07:40:57;20.40;99.90
17370;DHT22;8802;52.402;4.920;2023-07-31T07:43:25;20.40;99.90
17370;DHT22;8802;52.402;4.920;2023-07-31T07:45:52;20.40;99.90
17370;DHT22;8802;52.402;4.920;2023-07-31T07:48:19;20.40;99.90
17370;DHT22;8802;52.402;4.920;2023-07-31T07:50:46;20.50;99.90
17370;DHT22;8802;52.402;4.920;2023-07-31T07:53:13;20.50;99.90
17370;DHT22;8802;52.402;4.920;2023-07-31T07:55:40;20.50;99.90
17370;DHT22;8802;52.402;4.920;2023-07-31T07:58:09;20.50;99.90
17370;DHT22;8802;52.402;4.920;2023-07-31T08:00:37;20.60;99.90
17370;DHT22;8802;52.402;4.920;2023-07-31T08:03:04;20.60;99.90
17370;DHT22;8802;52.402;4.920;2023-07-31T08:05:31;20.60;99.90
17370;DHT22;8802;52.402;4.920;2023-07-31T08:08:00;20.60;99.90
17370;DHT22;8802;52.402;4.920;2023-07-31T08:10:27;20.70;99.90
17370;DHT22;8802;52.402;4.920;2023-07-31T08:12:54;20.70;99.90
17370;DHT22;8802;52.402;4.920;2023-07-31T08:15:21;20.70;99.90
17370;DHT22;8802;52.402;4.920;2023-07-31T08:17:49;20.70;99.90
17370;DHT22;8802;52.402;4.920;2023-07-31T08:20:16;20.80;99.90
17370;DHT22;8802;52.402;4.920;2023-07-31T08:22:44;20.80;99.90
17370;DHT22;8802;52.402;4.920;2023-07-31T08:25:12;20.80;99.90
17370;DHT22;8802;52.402;4.920;2023-07-31T08:27:41;20.80;99.90
17370;DHT22;8802;52.402;4.920;2023-07-31T08:30:11;20.90;99.90
17370;DHT22;8802;52.402;4.920;2023-07-31T08:32:38;20.90;99.90
17370;DHT22;8802;52.402;4.920;2023-07-31T08:35:07;20.90;99.90
17370;DHT22;8802;52.402;4.920;2023-07-31T08:37:34;20.90;99.90
17370;DHT22;8802;52.402;4.920;2023-07-31T08:40:01;21.00;99.90
17370;DHT22;8802;52.402;4.920;2023-07-31T08:42:28;21.00;99.90
17370;DHT22;8802;52.402;4.920;2023-07-31T08:44:55;21.00;99.90
17370;DHT22;8802;52.402;4.920;2023-07-31T08:47:25;21.00;99.90
17370;DHT22;8802;52.402;4.920;2023-07-31T08:49:53;21.00;99.90
17370;DHT22;8802;52.402;4.920;2023-07-31T08:52:23;21.00;99.90
17370;DHT22;8802;52.402;4.920;2023-07-31T08:54:50;21.00;99.90
17370;DHT22;8802;52.402;4.920;2023-07-31T08:57:17;21.10;99.90
17370;DHT22;8802;52.402;4.920;2023-07-31T08:59:45;21.10;99.90
17370;DHT22;8802;52.402;4.920;2023-07-31T09:02:13;21.10;99.90
17370;DHT22;8802;52.402;4.920;2023-07-31T09:04:42;21.10;99.90
17370;DHT22;8802;52.402;4.920;2023-07-31T09:07:09;21.10;99.90
17370;DHT22;8802;52.402;4.920;2023-07-31T09:09:40;21.10;99.90
17370;DHT22;8802;52.402;4.920;2023-07-31T09:12:08;21.10;99.90
17370;DHT22;8802;52.402;4.920;2023-07-31T09:14:35;21.20;99.90
17370;DHT22;8802;52.402;4.920;2023-07-31T09:17:04;21.20;99.90
17370;DHT22;8802;52.402;4.920;2023-07-31T09:19:34;21.20;99.90
17370;DHT22;8802;52.402;4.920;2023-07-31T09:22:03;21.20;99.90
17370;DHT22;8802;52.402;4.920;2023-07-31T09:24:32;21.20;99.90
17370;DHT22;8802;52.402;4.920;2023-07-31T09:27:01;21.30;99.90
17370;DHT22;8802;52.402;4.920;2023-07-31T09:29:29;21.30;99.90
17370;DHT22;8802;52.402;4.920;2023-07-31T09:31:56;21.30;99.90
17370;DHT22;8802;52.402;4.920;2023-07-31T09:34:29;21.40;99.90
17370;DHT22;8802;52.402;4.920;2023-07-31T09:37:01;21.30;99.90
17370;DHT22;8802;52.402;4.920;2023-07-31T09:39:29;21.30;99.90
17370;DHT22;8802;52.402;4.920;2023-07-31T09:41:57;21.40;99.90
17370;DHT22;8802;52.402;4.920;2023-07-31T09:44:39;21.40;99.90
17370;DHT22;8802;52.402;4.920;2023-07-31T09:47:07;21.40;99.90
17370;DHT22;8802;52.402;4.920;2023-07-31T09:49:47;21.40;99.90
17370;DHT22;8802;52.402;4.920;2023-07-31T09:52:14;21.40;99.90
17370;DHT22;8802;52.402;4.920;2023-07-31T09:54:42;21.40;99.90
17370;DHT22;8802;52.402;4.920;2023-07-31T09:57:09;21.50;99.90
17370;DHT22;8802;52.402;4.920;2023-07-31T09:59:38;21.50;99.90
17370;DHT22;8802;52.402;4.920;2023-07-31T10:02:09;21.50;99.90
17370;DHT22;8802;52.402;4.920;2023-07-31T10:04:40;21.50;99.90
17370;DHT22;8802;52.402;4.920;2023-07-31T10:07:08;21.50;99.90
17370;DHT22;8802;52.402;4.920;2023-07-31T10:09:36;21.50;99.90
17370;DHT22;8802;52.402;4.920;2023-07-31T10:12:06;21.60;99.90
17370;DHT22;8802;52.402;4.920;2023-07-31T10:14:36;21.60;99.90
17370;DHT22;8802;52.402;4.920;2023-07-31T10:17:06;21.60;99.90
17370;DHT22;8802;52.402;4.920;2023-07-31T10:19:34;21.60;99.90
17370;DHT22;8802;52.402;4.920;2023-07-31T10:22:03;21.60;99.90
17370;DHT22;8802;52.402;4.920;2023-07-31T10:24:31;21.70;99.90
17370;DHT22;8802;52.402;4.920;2023-07-31T10:27:00;21.70;99.90
17370;DHT22;8802;52.402;4.920;2023-07-31T10:29:29;21.60;99.90
17370;DHT22;8802;52.402;4.920;2023-07-31T10:31:57;21.70;99.90
17370;DHT22;8802;52.402;4.920;2023-07-31T10:34:26;21.70;99.90
17370;DHT22;8802;52.402;4.920;2023-07-31T10:37:24;21.70;99.90
17370;DHT22;8802;52.402;4.920;2023-07-31T10:39:59;21.70;99.90
17370;DHT22;8802;52.402;4.920;2023-07-31T10:42:31;21.70;99.90
17370;DHT22;8802;52.402;4.920;2023-07-31T10:45:00;21.80;99.90
17370;DHT22;8802;52.402;4.920;2023-07-31T10:47:28;21.80;99.90
17370;DHT22;8802;52.402;4.920;2023-07-31T10:50:12;21.80;99.90
17370;DHT22;8802;52.402;4.920;2023-07-31T10:52:39;21.80;99.90
17370;DHT22;8802;52.402;4.920;2023-07-31T10:55:31;21.80;99.90
17370;DHT22;8802;52.402;4.920;2023-07-31T10:58:05;21.80;99.90
17370;DHT22;8802;52.402;4.920;2023-07-31T11:00:33;21.80;99.90
17370;DHT22;8802;52.402;4.920;2023-07-31T11:03:05;21.90;99.90
17370;DHT22;8802;52.402;4.920;2023-07-31T11:05:44;21.90;99.90
17370;DHT22;8802;52.402;4.920;2023-07-31T11:08:13;21.90;99.90
17370;DHT22;8802;52.402;4.920;2023-07-31T11:10:41;21.90;99.90
17370;DHT22;8802;52.402;4.920;2023-07-31T11:13:08;21.90;99.90
17370;DHT22;8802;52.402;4.920;2023-07-31T11:15:35;21.90;99.90
17370;DHT22;8802;52.402;4.920;2023-07-31T11:18:03;21.90;99.90
17370;DHT22;8802;52.402;4.920;2023-07-31T11:20:32;21.90;99.90
17370;DHT22;8802;52.402;4.920;2023-07-31T11:23:02;21.90;99.90
17370;DHT22;8802;52.402;4.920;2023-07-31T11:25:30;22.00;99.90
17370;DHT22;8802;52.402;4.920;2023-07-31T11:28:02;22.00;99.90
17370;DHT22;8802;52.402;4.920;2023-07-31T11:30:29;22.00;99.90
17370;DHT22;8802;52.402;4.920;2023-07-31T11:32:56;22.00;99.90
17370;DHT22;8802;52.402;4.920;2023-07-31T11:35:23;22.10;99.90
17370;DHT22;8802;52.402;4.920;2023-07-31T11:37:50;22.10;99.90
17370;DHT22;8802;52.402;4.920;2023-07-31T11:40:20;22.10;99.90
17370;DHT22;8802;52.402;4.920;2023-07-31T11:42:47;22.10;99.90
17370;DHT22;8802;52.402;4.920;2023-07-31T11:45:14;22.20;99.90
17370;DHT22;8802;52.402;4.920;2023-07-31T11:47:44;22.20;99.90
17370;DHT22;8802;52.402;4.920;2023-07-31T11:50:12;22.20;99.90
17370;DHT22;8802;52.402;4.920;2023-07-31T11:52:41;22.20;99.90
17370;DHT22;8802;52.402;4.920;2023-07-31T11:55:09;22.20;99.90
17370;DHT22;8802;52.402;4.920;2023-07-31T11:57:40;22.30;99.90
17370;DHT22;8802;52.402;4.920;2023-07-31T12:00:09;22.30;99.90
17370;DHT22;8802;52.402;4.920;2023-07-31T12:02:39;22.30;99.90
17370;DHT22;8802;52.402;4.920;2023-07-31T12:05:10;22.40;99.90
17370;DHT22;8802;52.402;4.920;2023-07-31T12:07:44;22.40;99.90
17370;DHT22;8802;52.402;4.920;2023-07-31T12:10:26;22.30;99.90
17370;DHT22;8802;52.402;4.920;2023-07-31T12:13:00;22.30;99.90
17370;DHT22;8802;52.402;4.920;2023-07-31T12:15:36;22.40;99.90
17370;DHT22;8802;52.402;4.920;2023-07-31T12:18:08;22.30;99.90
17370;DHT22;8802;52.402;4.920;2023-07-31T12:20:41;22.30;99.90
17370;DHT22;8802;52.402;4.920;2023-07-31T12:23:14;22.30;99.90
17370;DHT22;8802;52.402;4.920;2023-07-31T12:25:41;22.30;99.90
17370;DHT22;8802;52.402;4.920;2023-07-31T12:28:10;22.30;99.90
17370;DHT22;8802;52.402;4.920;2023-07-31T12:30:39;22.30;99.90
17370;DHT22;8802;52.402;4.920;2023-07-31T12:33:12;22.40;99.90
17370;DHT22;8802;52.402;4.920;2023-07-31T12:35:41;22.30;99.90
17370;DHT22;8802;52.402;4.920;2023-07-31T12:38:09;22.40;99.90
17370;DHT22;8802;52.402;4.920;2023-07-31T12:40:38;22.40;99.90
17370;DHT22;8802;52.402;4.920;2023-07-31T12:43:05;22.40;99.90
17370;DHT22;8802;52.402;4.920;2023-07-31T12:45:34;22.30;99.90
17370;DHT22;8802;52.402;4.920;2023-07-31T12:48:01;22.30;99.90
17370;DHT22;8802;52.402;4.920;2023-07-31T12:50:28;22.30;99.90
17370;DHT22;8802;52.402;4.920;2023-07-31T12:52:55;22.40;99.90
17370;DHT22;8802;52.402;4.920;2023-07-31T12:55:23;22.40;99.90
17370;DHT22;8802;52.402;4.920;2023-07-31T12:57:50;22.40;99.90
17370;DHT22;8802;52.402;4.920;2023-07-31T13:00:18;22.40;99.90
17370;DHT22;8802;52.402;4.920;2023-07-31T13:02:46;22.40;99.90
17370;DHT22;8802;52.402;4.920;2023-07-31T13:05:13;22.40;99.90
17370;DHT22;8802;52.402;4.920;2023-07-31T13:07:40;22.40;99.90
17370;DHT22;8802;52.402;4.920;2023-07-31T13:10:09;22.40;99.90
17370;DHT22;8802;52.402;4.920;2023-07-31T13:12:36;22.50;99.90
17370;DHT22;8802;52.402;4.920;2023-07-31T13:15:04;22.40;99.90
17370;DHT22;8802;52.402;4.920;2023-07-31T13:17:31;22.40;99.90
17370;DHT22;8802;52.402;4.920;2023-07-31T13:19:59;22.50;99.90
17370;DHT22;8802;52.402;4.920;2023-07-31T13:22:27;22.50;99.90
17370;DHT22;8802;52.402;4.920;2023-07-31T13:24:54;22.50;99.90
17370;DHT22;8802;52.402;4.920;2023-07-31T13:27:21;22.60;99.90
17370;DHT22;8802;52.402;4.920;2023-07-31T13:29:49;22.60;99.90
17370;DHT22;8802;52.402;4.920;2023-07-31T13:32:17;22.60;99.90
17370;DHT22;8802;52.402;4.920;2023-07-31T13:34:45;22.60;99.90
17370;DHT22;8802;52.402;4.920;2023-07-31T13:37:15;22.70;99.90
17370;DHT22;8802;52.402;4.920;2023-07-31T13:39:56;22.70;99.90
17370;DHT22;8802;52.402;4.920;2023-07-31T13:42:23;22.70;99.90
17370;DHT22;8802;52.402;4.920;2023-07-31T13:44:50;22.70;99.90
17370;DHT22;8802;52.402;4.920;2023-07-31T13:47:17;22.70;99.90
17370;DHT22;8802;52.402;4.920;2023-07-31T13:49:44;22.70;99.90
17370;DHT22;8802;52.402;4.920;2023-07-31T13:52:11;22.70;99.90
17370;DHT22;8802;52.402;4.920;2023-07-31T13:54:41;22.70;99.90
17370;DHT22;8802;52.402;4.920;2023-07-31T13:57:08;22.70;99.90
17370;DHT22;8802;52.402;4.920;2023-07-31T13:59:35;22.70;99.90
17370;DHT22;8802;52.402;4.920;2023-07-31T14:02:03;22.70;99.90
17370;DHT22;8802;52.402;4.920;2023-07-31T14:04:30;22.70;99.90
17370;DHT22;8802;52.402;4.920;2023-07-31T14:06:57;22.60;99.90
17370;DHT22;8802;52.402;4.920;2023-07-31T14:09:24;22.60;99.90
17370;DHT22;8802;52.402;4.920;2023-07-31T14:11:54;22.60;99.90
17370;DHT22;8802;52.402;4.920;2023-07-31T14:14:21;22.60;99.90
17370;DHT22;8802;52.402;4.920;2023-07-31T14:16:47;22.60;99.90
17370;DHT22;8802;52.402;4.920;2023-07-31T14:19:15;22.60;99.90
17370;DHT22;8802;52.402;4.920;2023-07-31T14:21:42;22.50;99.90
17370;DHT22;8802;52.402;4.920;2023-07-31T14:24:09;22.50;99.90
17370;DHT22;8802;52.402;4.920;2023-07-31T14:26:36;22.50;99.90
17370;DHT22;8802;52.402;4.920;2023-07-31T14:29:04;22.50;99.90
17370;DHT22;8802;52.402;4.920;2023-07-31T14:31:31;22.40;99.90
17370;DHT22;8802;52.402;4.920;2023-07-31T14:33:58;22.40;99.90
17370;DHT22;8802;52.402;4.920;2023-07-31T14:36:26;22.40;99.90
17370;DHT22;8802;52.402;4.920;2023-07-31T14:38:53;22.30;99.90
17370;DHT22;8802;52.402;4.920;2023-07-31T14:41:20;22.30;99.90
17370;DHT22;8802;52.402;4.920;2023-07-31T14:43:47;22.30;99.90
17370;DHT22;8802;52.402;4.920;2023-07-31T14:46:17;22.30;99.90
17370;DHT22;8802;52.402;4.920;2023-07-31T14:48:44;22.30;99.90
17370;DHT22;8802;52.402;4.920;2023-07-31T14:51:11;22.30;99.90
17370;DHT22;8802;52.402;4.920;2023-07-31T14:53:39;22.20;99.90
17370;DHT22;8802;52.402;4.920;2023-07-31T14:56:07;22.20;99.90
17370;DHT22;8802;52.402;4.920;2023-07-31T14:58:34;22.20;99.90
17370;DHT22;8802;52.402;4.920;2023-07-31T15:01:01;22.20;99.90
17370;DHT22;8802;52.402;4.920;2023-07-31T15:03:29;22.20;99.90
17370;DHT22;8802;52.402;4.920;2023-07-31T15:05:56;22.20;99.90
17370;DHT22;8802;52.402;4.920;2023-07-31T15:08:23;22.20;99.90
17370;DHT22;8802;52.402;4.920;2023-07-31T15:10:50;22.20;99.90
17370;DHT22;8802;52.402;4.920;2023-07-31T15:13:23;22.20;99.90
17370;DHT22;8802;52.402;4.920;2023-07-31T15:15:50;22.20;99.90
17370;DHT22;8802;52.402;4.920;2023-07-31T15:18:17;22.20;99.90
17370;DHT22;8802;52.402;4.920;2023-07-31T15:20:46;22.20;99.90
17370;DHT22;8802;52.402;4.920;2023-07-31T15:23:13;22.20;99.90
17370;DHT22;8802;52.402;4.920;2023-07-31T15:25:42;22.20;99.90
17370;DHT22;8802;52.402;4.920;2023-07-31T15:28:09;22.20;99.90
17370;DHT22;8802;52.402;4.920;2023-07-31T15:30:36;22.20;99.90
17370;DHT22;8802;52.402;4.920;2023-07-31T15:33:04;22.20;99.90
17370;DHT22;8802;52.402;4.920;2023-07-31T15:35:31;22.20;99.90
17370;DHT22;8802;52.402;4.920;2023-07-31T15:38:00;22.20;99.90
17370;DHT22;8802;52.402;4.920;2023-07-31T15:40:27;22.20;99.90
17370;DHT22;8802;52.402;4.920;2023-07-31T15:42:54;22.20;99.90
17370;DHT22;8802;52.402;4.920;2023-07-31T15:45:21;22.20;99.90
17370;DHT22;8802;52.402;4.920;2023-07-31T15:47:53;22.20;99.90
17370;DHT22;8802;52.402;4.920;2023-07-31T15:50:20;22.20;99.90
17370;DHT22;8802;52.402;4.920;2023-07-31T15:52:47;22.20;99.90